createdAt,value
2023-01-24T00:01:03.983Z,2.80
2023-01-24T00:03:31.586Z,2.30
2023-01-24T00:05:59.147Z,2.20
2023-01-24T00:08:26.647Z,2.30
2023-01-24T00:11:02.189Z,1.90
2023-01-24T00:13:30.349Z,2.30
2023-01-24T00:16:16.157Z,2.30
2023-01-24T00:18:44.235Z,2.30
2023-01-24T00:21:17.486Z,2.30
2023-01-24T00:23:47.821Z,2.20
2023-01-24T00:26:16.460Z,2.40
2023-01-24T00:28:47.546Z,3.90
2023-01-24T00:31:15.293Z,3.60
2023-01-24T00:33:43.481Z,2.30
2023-01-24T00:36:11.394Z,2.30
2023-01-24T00:38:41.326Z,2.30
2023-01-24T00:41:08.937Z,2.30
2023-01-24T00:43:36.446Z,3.40
2023-01-24T00:46:07.478Z,4.50
2023-01-24T00:48:35.169Z,2.30
2023-01-24T00:51:02.975Z,3.70
2023-01-24T00:53:30.732Z,2.30
2023-01-24T00:55:58.254Z,2.30
2023-01-24T00:58:25.922Z,4.00
2023-01-24T01:00:57.351Z,2.30
2023-01-24T01:03:25.313Z,3.10
2023-01-24T01:06:15.002Z,2.30
2023-01-24T01:08:44.134Z,3.00
2023-01-24T01:11:11.598Z,2.30
2023-01-24T01:13:39.344Z,2.40
2023-01-24T01:16:09.020Z,2.30
2023-01-24T01:18:37.772Z,2.40
2023-01-24T01:21:06.759Z,2.30
2023-01-24T01:23:34.526Z,2.30
2023-01-24T01:26:05.088Z,2.30
2023-01-24T01:28:33.152Z,3.30
2023-01-24T01:31:00.678Z,2.30
2023-01-24T01:33:28.239Z,2.40
2023-01-24T01:35:55.732Z,2.30
2023-01-24T01:38:25.477Z,2.30
2023-01-24T01:40:53.047Z,2.30
2023-01-24T01:43:22.987Z,2.30
2023-01-24T01:45:55.977Z,2.60
2023-01-24T01:48:37.456Z,2.30
2023-01-24T01:51:26.705Z,2.30
2023-01-24T01:54:14.959Z,2.40
2023-01-24T01:56:46.907Z,2.30
2023-01-24T01:59:19.216Z,2.30
2023-01-24T02:01:48.884Z,2.40
2023-01-24T02:04:32.678Z,2.30
2023-01-24T02:07:21.156Z,2.40
2023-01-24T02:09:53.559Z,3.10
2023-01-24T02:12:27.539Z,4.00
2023-01-24T02:15:18.156Z,2.40
2023-01-24T02:17:45.869Z,2.20
2023-01-24T02:20:28.423Z,3.20
2023-01-24T02:23:05.025Z,2.40
2023-01-24T02:25:41.030Z,2.40
2023-01-24T02:28:12.384Z,2.60
2023-01-24T02:30:40.288Z,2.20
2023-01-24T02:33:17.067Z,4.10
2023-01-24T02:35:46.534Z,2.40
2023-01-24T02:38:24.601Z,2.40
2023-01-24T02:40:57.988Z,2.40
2023-01-24T02:43:29.350Z,2.40
2023-01-24T02:45:56.828Z,2.40
2023-01-24T02:48:24.284Z,2.40
2023-01-24T02:51:10.284Z,4.00
2023-01-24T02:53:37.916Z,2.50
2023-01-24T02:56:26.556Z,3.70
2023-01-24T02:58:54.767Z,2.40
2023-01-24T03:01:23.696Z,4.20
2023-01-24T03:03:56.129Z,2.50
2023-01-24T03:06:24.441Z,2.40
2023-01-24T03:08:52.926Z,2.40
2023-01-24T03:11:40.616Z,3.80
2023-01-24T03:14:27.744Z,2.50
2023-01-24T03:17:13.719Z,2.50
2023-01-24T03:19:59.972Z,2.50
2023-01-24T03:22:46.322Z,2.50
2023-01-24T03:25:32.384Z,2.50
2023-01-24T03:28:25.026Z,2.50
2023-01-24T03:31:12.856Z,2.70
2023-01-24T03:33:58.831Z,2.50
2023-01-24T03:36:32.698Z,2.50
2023-01-24T03:39:20.238Z,2.50
2023-01-24T03:41:47.807Z,2.80
2023-01-24T03:44:15.372Z,2.40
2023-01-24T03:46:43.818Z,2.50
2023-01-24T03:49:14.360Z,3.50
2023-01-24T03:52:00.592Z,2.50
2023-01-24T03:54:28.888Z,2.50
2023-01-24T03:57:03.241Z,2.50
2023-01-24T03:59:30.853Z,2.80
2023-01-24T04:01:59.110Z,2.50
2023-01-24T04:04:51.344Z,2.30
2023-01-24T04:07:26.495Z,3.80
2023-01-24T04:09:59.159Z,2.60
2023-01-24T04:12:27.383Z,2.50
2023-01-24T04:14:55.328Z,2.50
2023-01-24T04:17:23.407Z,2.50
2023-01-24T04:19:54.033Z,2.50
2023-01-24T04:22:22.036Z,2.50
2023-01-24T04:24:49.607Z,2.50
2023-01-24T04:27:18.411Z,2.50
2023-01-24T04:30:05.245Z,2.50
2023-01-24T04:32:35.407Z,2.60
2023-01-24T04:35:28.160Z,2.50
2023-01-24T04:38:02.109Z,3.30
2023-01-24T04:41:00.406Z,2.40
2023-01-24T04:43:30.462Z,4.10
2023-01-24T04:45:59.744Z,2.60
2023-01-24T04:48:39.617Z,4.00
2023-01-24T04:51:07.247Z,2.50
2023-01-24T04:53:36.515Z,2.60
2023-01-24T04:56:04.519Z,2.60
2023-01-24T04:58:34.961Z,2.60
2023-01-24T05:01:04.743Z,2.70
2023-01-24T05:03:37.281Z,2.70
2023-01-24T05:06:05.361Z,4.10
2023-01-24T05:08:33.924Z,2.70
2023-01-24T05:11:03.443Z,2.60
2023-01-24T05:13:34.910Z,2.80
2023-01-24T05:16:04.267Z,3.30
2023-01-24T05:18:32.408Z,2.80
2023-01-24T05:21:09.207Z,2.80
2023-01-24T05:23:37.009Z,2.80
2023-01-24T05:26:07.168Z,2.80
2023-01-24T05:28:35.548Z,2.80
2023-01-24T05:31:08.415Z,2.80
2023-01-24T05:33:37.067Z,2.90
2023-01-24T05:36:10.398Z,2.80
2023-01-24T05:38:39.208Z,2.90
2023-01-24T05:41:09.385Z,2.90
2023-01-24T05:43:37.975Z,4.40
2023-01-24T05:46:07.128Z,2.90
2023-01-24T05:48:40.054Z,3.60
2023-01-24T05:51:09.858Z,3.50
2023-01-24T05:53:40.366Z,2.90
2023-01-24T05:56:14.113Z,3.00
2023-01-24T05:58:43.227Z,3.00
2023-01-24T06:01:17.515Z,3.00
2023-01-24T06:03:48.565Z,3.10
2023-01-24T06:06:21.271Z,3.10
2023-01-24T06:08:48.997Z,3.10
2023-01-24T06:11:22.933Z,3.10
2023-01-24T06:13:51.784Z,3.00
2023-01-24T06:16:21.713Z,3.50
2023-01-24T06:18:50.456Z,3.10
2023-01-24T06:21:36.654Z,3.20
2023-01-24T06:24:06.328Z,3.20
2023-01-24T06:26:48.151Z,3.20
2023-01-24T06:29:16.127Z,3.20
2023-01-24T06:32:12.591Z,3.20
2023-01-24T06:34:51.958Z,3.20
2023-01-24T06:37:47.831Z,3.20
2023-01-24T06:40:18.825Z,3.30
2023-01-24T06:42:47.447Z,3.30
2023-01-24T06:45:15.237Z,3.30
2023-01-24T06:47:43.673Z,3.30
2023-01-24T06:50:23.396Z,3.30
2023-01-24T06:52:52.030Z,3.30
2023-01-24T06:55:21.159Z,3.30
2023-01-24T06:57:55.530Z,3.30
2023-01-24T07:00:23.284Z,3.20
2023-01-24T07:03:08.284Z,3.30
2023-01-24T07:05:37.663Z,3.30
2023-01-24T07:08:06.687Z,3.20
2023-01-24T07:10:34.157Z,3.20
2023-01-24T07:13:01.747Z,3.30
2023-01-24T07:15:29.423Z,3.20
2023-01-24T07:17:57.236Z,3.20
2023-01-24T07:20:24.923Z,3.30
2023-01-24T07:22:52.989Z,3.30
2023-01-24T07:25:21.520Z,3.30
2023-01-24T07:27:49.476Z,3.30
2023-01-24T07:30:17.214Z,3.30
2023-01-24T07:32:44.789Z,3.30
2023-01-24T07:35:12.605Z,3.30
2023-01-24T07:37:42.540Z,3.30
2023-01-24T07:40:10.820Z,3.20
2023-01-24T07:42:38.290Z,3.30
2023-01-24T07:45:06.736Z,3.20
2023-01-24T07:47:34.292Z,3.30
2023-01-24T07:50:01.906Z,3.30
2023-01-24T07:52:29.386Z,3.50
2023-01-24T07:54:57.003Z,4.00
2023-01-24T07:57:24.482Z,3.30
2023-01-24T07:59:51.939Z,3.30
2023-01-24T08:02:21.550Z,4.90
2023-01-24T08:04:49.048Z,3.30
2023-01-24T08:07:19.295Z,3.30
2023-01-24T08:09:48.742Z,3.30
2023-01-24T08:12:16.794Z,3.40
2023-01-24T08:14:45.309Z,4.30
2023-01-24T08:17:13.023Z,3.30
2023-01-24T08:19:55.359Z,3.40
2023-01-24T08:22:24.445Z,5.70
2023-01-24T08:24:51.939Z,3.70
2023-01-24T08:27:19.481Z,4.00
2023-01-24T08:29:46.967Z,3.40
2023-01-24T08:32:14.472Z,3.30
2023-01-24T08:34:42.063Z,3.50
2023-01-24T08:37:09.588Z,3.50
2023-01-24T08:39:37.037Z,3.50
2023-01-24T08:42:04.731Z,5.80
2023-01-24T08:44:34.921Z,3.50
2023-01-24T08:47:02.577Z,3.50
2023-01-24T08:49:32.457Z,3.70
2023-01-24T08:52:00.353Z,3.40
2023-01-24T08:54:29.123Z,3.50
2023-01-24T08:56:59.080Z,4.00
2023-01-24T08:59:26.670Z,3.60
2023-01-24T09:01:57.260Z,3.60
2023-01-24T09:04:27.212Z,3.60
2023-01-24T09:06:54.928Z,3.70
2023-01-24T09:09:22.469Z,3.60
2023-01-24T09:11:50.022Z,3.90
2023-01-24T09:14:17.463Z,4.30
2023-01-24T09:16:44.960Z,3.70
2023-01-24T09:19:13.434Z,3.80
2023-01-24T09:21:41.021Z,3.80
2023-01-24T09:24:08.863Z,5.00
2023-01-24T09:26:36.491Z,3.80
2023-01-24T09:29:03.975Z,6.00
2023-01-24T09:31:31.868Z,4.20
2023-01-24T09:34:00.248Z,4.10
2023-01-24T09:36:28.808Z,5.70
2023-01-24T09:39:05.362Z,3.90
2023-01-24T09:41:44.707Z,3.80
2023-01-24T09:44:39.483Z,4.00
2023-01-24T09:47:27.070Z,4.00
2023-01-24T09:50:04.040Z,4.00
2023-01-24T09:52:42.686Z,4.00
2023-01-24T09:55:15.647Z,4.10
2023-01-24T09:57:50.457Z,4.10
2023-01-24T10:00:30.883Z,4.40
2023-01-24T10:03:01.150Z,5.20
2023-01-24T10:05:56.332Z,5.40
2023-01-24T10:08:23.880Z,4.20
2023-01-24T10:11:16.075Z,4.20
2023-01-24T10:14:09.518Z,4.20
2023-01-24T10:16:47.879Z,4.20
2023-01-24T10:19:36.663Z,5.00
2023-01-24T10:22:25.279Z,4.30
2023-01-24T10:25:03.812Z,4.30
2023-01-24T10:27:37.324Z,4.30
2023-01-24T10:30:22.578Z,4.60
2023-01-24T10:32:54.024Z,4.40
2023-01-24T10:35:27.533Z,4.40
2023-01-24T10:37:58.925Z,4.40
2023-01-24T10:40:27.023Z,4.50
2023-01-24T10:42:54.521Z,4.50
2023-01-24T10:45:36.905Z,4.50
2023-01-24T10:48:24.699Z,4.50
2023-01-24T10:50:52.092Z,6.00
2023-01-24T10:53:31.089Z,4.60
2023-01-24T10:56:04.907Z,5.90
2023-01-24T10:58:46.816Z,4.70
2023-01-24T11:01:22.798Z,5.70
2023-01-24T11:03:52.306Z,5.80
2023-01-24T11:06:26.161Z,4.70
2023-01-24T11:09:10.479Z,4.70
2023-01-24T11:11:50.897Z,4.70
2023-01-24T11:14:25.488Z,4.70
2023-01-24T11:16:58.650Z,4.70
2023-01-24T11:19:30.547Z,4.80
2023-01-24T11:22:01.286Z,4.90
2023-01-24T11:24:30.033Z,5.00
2023-01-24T11:27:19.271Z,4.80
2023-01-24T11:30:06.614Z,4.90
2023-01-24T11:32:57.163Z,4.90
2023-01-24T11:35:28.333Z,4.90
2023-01-24T11:38:17.602Z,7.20
2023-01-24T11:41:08.442Z,4.90
2023-01-24T11:43:58.630Z,5.00
2023-01-24T11:46:33.115Z,5.00
2023-01-24T11:49:25.559Z,5.20
2023-01-24T11:52:14.323Z,5.10
2023-01-24T11:54:48.177Z,5.10
2023-01-24T11:57:19.515Z,5.10
2023-01-24T12:00:19.942Z,5.40
2023-01-24T12:03:11.672Z,5.10
2023-01-24T12:06:03.335Z,5.10
2023-01-24T12:08:53.629Z,5.20
2023-01-24T12:11:36.998Z,5.20
2023-01-24T12:14:42.453Z,6.10
2023-01-24T12:17:24.330Z,5.20
2023-01-24T12:20:31.492Z,5.30
2023-01-24T12:23:30.287Z,5.30
2023-01-24T12:26:04.637Z,5.30
2023-01-24T12:28:44.132Z,6.90
2023-01-24T12:31:18.590Z,5.30
2023-01-24T12:34:09.149Z,5.30
2023-01-24T12:36:55.467Z,5.40
2023-01-24T12:39:32.309Z,5.40
2023-01-24T12:42:11.621Z,5.90
2023-01-24T12:44:53.402Z,7.10
2023-01-24T12:47:43.825Z,5.20
2023-01-24T12:50:31.806Z,7.30
2023-01-24T12:53:27.766Z,6.10
2023-01-24T12:56:11.295Z,5.50
2023-01-24T12:58:41.613Z,5.50
2023-01-24T13:01:21.130Z,5.50
2023-01-24T13:03:55.759Z,5.50
2023-01-24T13:06:58.698Z,5.50
2023-01-24T13:09:43.763Z,5.50
2023-01-24T13:12:24.348Z,5.50
2023-01-24T13:15:06.058Z,6.90
2023-01-24T13:18:04.328Z,5.60
2023-01-24T13:20:51.834Z,5.60
2023-01-24T13:23:39.890Z,5.60
2023-01-24T13:26:32.754Z,5.50
2023-01-24T13:29:18.571Z,5.50
2023-01-24T13:31:59.474Z,5.50
2023-01-24T13:34:32.910Z,5.40
2023-01-24T13:37:01.813Z,7.10
2023-01-24T13:39:41.046Z,5.40
2023-01-24T13:42:23.587Z,5.40
2023-01-24T13:44:51.724Z,6.20
2023-01-24T13:47:19.346Z,5.50
2023-01-24T13:49:55.590Z,5.40
2023-01-24T13:52:34.885Z,5.40
2023-01-24T13:55:05.786Z,5.90
2023-01-24T13:57:38.164Z,5.40
2023-01-24T14:00:12.690Z,5.30
2023-01-24T14:02:48.899Z,7.40
2023-01-24T14:05:31.697Z,5.30
2023-01-24T14:08:02.063Z,5.40
2023-01-24T14:10:37.145Z,6.60
2023-01-24T14:13:05.904Z,7.40
2023-01-24T14:15:42.021Z,5.40
2023-01-24T14:18:54.347Z,5.50
2023-01-24T14:21:26.013Z,5.30
2023-01-24T14:23:58.611Z,5.30
2023-01-24T14:26:31.256Z,5.60
2023-01-24T14:29:03.220Z,5.20
2023-01-24T14:31:35.918Z,6.00
2023-01-24T14:34:12.093Z,5.30
2023-01-24T14:36:39.927Z,5.30
2023-01-24T14:39:17.999Z,5.20
2023-01-24T14:41:47.997Z,5.30
2023-01-24T14:44:26.152Z,5.20
2023-01-24T14:46:56.452Z,5.20
2023-01-24T14:49:28.826Z,5.20
2023-01-24T14:52:00.538Z,5.20
2023-01-24T14:54:35.608Z,5.20
2023-01-24T14:57:19.052Z,6.90
2023-01-24T15:00:17.812Z,7.10
2023-01-24T15:03:02.635Z,6.30
2023-01-24T15:05:38.403Z,5.50
2023-01-24T15:08:17.614Z,5.10
2023-01-24T15:10:45.091Z,5.10
2023-01-24T15:13:24.610Z,5.10
2023-01-24T15:15:52.870Z,7.20
2023-01-24T15:18:33.281Z,5.00
2023-01-24T15:21:01.314Z,5.00
2023-01-24T15:23:32.246Z,6.60
2023-01-24T15:26:24.069Z,5.00
2023-01-24T15:28:51.653Z,4.90
2023-01-24T15:31:25.033Z,4.90
2023-01-24T15:34:00.946Z,4.90
2023-01-24T15:36:33.982Z,4.80
2023-01-24T15:39:02.443Z,5.20
2023-01-24T15:41:55.103Z,4.70
2023-01-24T15:44:23.039Z,6.60
2023-01-24T15:47:17.227Z,4.80
2023-01-24T15:50:21.828Z,4.70
2023-01-24T15:53:13.241Z,5.00
2023-01-24T15:55:41.076Z,4.70
2023-01-24T15:58:09.983Z,4.70
2023-01-24T16:00:38.127Z,4.70
2023-01-24T16:03:08.503Z,4.60
2023-01-24T16:05:36.029Z,4.60
2023-01-24T16:08:03.634Z,4.50
2023-01-24T16:10:32.471Z,4.50
2023-01-24T16:13:00.022Z,6.60
2023-01-24T16:15:27.513Z,4.50
2023-01-24T16:17:57.680Z,5.00
2023-01-24T16:20:30.078Z,6.30
2023-01-24T16:22:57.511Z,4.40
2023-01-24T16:25:25.221Z,4.40
2023-01-24T16:27:53.161Z,4.30
2023-01-24T16:30:25.162Z,4.30
2023-01-24T16:32:53.944Z,4.30
2023-01-24T16:35:22.176Z,4.30
2023-01-24T16:37:49.662Z,4.30
2023-01-24T16:40:18.551Z,4.20
2023-01-24T16:42:48.271Z,4.20
2023-01-24T16:45:20.917Z,4.10
2023-01-24T16:47:48.697Z,4.20
2023-01-24T16:50:17.343Z,4.20
2023-01-24T16:52:44.994Z,4.10
2023-01-24T16:55:12.740Z,5.90
2023-01-24T16:57:40.229Z,4.00
2023-01-24T17:00:13.636Z,4.00
2023-01-24T17:02:45.140Z,4.00
2023-01-24T17:05:12.993Z,6.20
2023-01-24T17:07:40.571Z,3.90
2023-01-24T17:10:09.105Z,5.70
2023-01-24T17:12:36.805Z,3.90
2023-01-24T17:15:07.573Z,4.10
2023-01-24T17:17:35.993Z,3.90
2023-01-24T17:20:05.794Z,4.60
2023-01-24T17:22:33.639Z,3.90
2023-01-24T17:25:01.332Z,3.90
2023-01-24T17:27:28.880Z,5.50
2023-01-24T17:29:57.220Z,3.90
2023-01-24T17:32:24.832Z,3.80
2023-01-24T17:34:52.309Z,3.90
2023-01-24T17:37:19.766Z,5.00
2023-01-24T17:39:47.728Z,3.90
2023-01-24T17:42:15.188Z,3.40
2023-01-24T17:44:42.649Z,3.80
2023-01-24T17:47:10.124Z,5.30
2023-01-24T17:49:37.809Z,4.60
2023-01-24T17:52:05.375Z,3.80
2023-01-24T17:54:33.212Z,4.70
2023-01-24T17:57:00.927Z,3.80
2023-01-24T17:59:28.419Z,3.80
2023-01-24T18:01:55.935Z,4.30
2023-01-24T18:04:23.457Z,3.70
2023-01-24T18:06:50.929Z,4.90
2023-01-24T18:09:18.385Z,3.80
2023-01-24T18:11:45.890Z,3.80
2023-01-24T18:14:13.373Z,3.80
2023-01-24T18:16:40.941Z,5.50
2023-01-24T18:19:08.505Z,3.80
2023-01-24T18:21:35.988Z,5.10
2023-01-24T18:24:04.038Z,3.80
2023-01-24T18:26:32.241Z,3.80
2023-01-24T18:29:00.262Z,3.80
2023-01-24T18:31:27.771Z,3.80
2023-01-24T18:34:02.035Z,3.80
2023-01-24T18:36:30.668Z,4.10
2023-01-24T18:38:58.267Z,6.10
2023-01-24T18:41:30.577Z,5.80
2023-01-24T18:44:01.029Z,3.80
2023-01-24T18:46:28.503Z,6.00
2023-01-24T18:48:55.909Z,3.70
2023-01-24T18:51:23.376Z,3.60
2023-01-24T18:53:53.049Z,3.70
2023-01-24T18:56:20.797Z,3.70
2023-01-24T18:58:48.872Z,3.70
2023-01-24T19:01:23.417Z,3.70
2023-01-24T19:03:53.684Z,3.70
2023-01-24T19:06:35.049Z,3.70
2023-01-24T19:09:06.686Z,3.70
2023-01-24T19:11:37.461Z,3.70
2023-01-24T19:14:06.261Z,4.10
2023-01-24T19:16:40.655Z,4.50
2023-01-24T19:19:14.175Z,4.20
2023-01-24T19:21:42.601Z,3.70
2023-01-24T19:24:10.744Z,5.00
2023-01-24T19:26:38.193Z,3.70
2023-01-24T19:29:06.226Z,3.70
2023-01-24T19:31:33.632Z,3.70
2023-01-24T19:34:01.161Z,2.50
2023-01-24T19:36:28.715Z,3.60
2023-01-24T19:38:59.514Z,3.60
2023-01-24T19:41:29.230Z,3.80
2023-01-24T19:46:47.966Z,3.60
2023-01-24T19:49:15.793Z,3.60
2023-01-24T19:51:43.543Z,3.60
2023-01-24T19:54:11.001Z,6.20
2023-01-24T19:56:38.466Z,3.20
2023-01-24T19:59:06.450Z,3.60
2023-01-24T20:01:34.445Z,3.60
2023-01-24T20:04:22.181Z,3.60
2023-01-24T20:06:50.103Z,5.30
2023-01-24T20:09:17.693Z,3.60
2023-01-24T20:11:51.818Z,3.60
2023-01-24T20:14:22.355Z,5.10
2023-01-24T20:16:52.249Z,5.50
2023-01-24T20:19:29.107Z,4.30
2023-01-24T20:21:58.801Z,3.60
2023-01-24T20:24:26.873Z,4.50
2023-01-24T20:26:54.709Z,4.90
2023-01-24T20:29:22.308Z,3.60
2023-01-24T20:31:51.334Z,3.60
2023-01-24T20:34:19.347Z,3.60
2023-01-24T20:36:50.319Z,3.60
2023-01-24T20:39:21.557Z,4.40
2023-01-24T20:41:50.723Z,3.60
2023-01-24T20:44:26.489Z,3.60
2023-01-24T20:46:58.021Z,3.60
2023-01-24T20:49:26.000Z,3.60
2023-01-24T20:51:54.041Z,5.00
2023-01-24T20:54:22.479Z,3.60
2023-01-24T20:56:57.602Z,3.60
2023-01-24T20:59:26.705Z,4.00
2023-01-24T21:01:56.777Z,5.10
2023-01-24T21:04:24.535Z,5.60
2023-01-24T21:06:52.087Z,3.70
2023-01-24T21:09:20.244Z,4.60
2023-01-24T21:11:48.092Z,4.00
2023-01-24T21:14:17.049Z,4.20
2023-01-24T21:16:47.175Z,3.50
2023-01-24T21:19:18.592Z,5.70
2023-01-24T21:21:48.545Z,3.40
2023-01-24T21:24:31.722Z,4.20
2023-01-24T21:27:00.620Z,3.70
2023-01-24T21:29:28.477Z,4.70
2023-01-24T21:31:56.327Z,3.60
2023-01-24T21:34:25.933Z,3.50
2023-01-24T21:36:53.507Z,3.50
2023-01-24T21:39:26.356Z,3.50
2023-01-24T21:41:55.044Z,3.80
2023-01-24T21:44:29.393Z,3.90
2023-01-24T21:46:56.954Z,3.50
2023-01-24T21:49:24.841Z,3.50
2023-01-24T21:51:58.815Z,3.50
2023-01-24T21:54:27.531Z,3.50
2023-01-24T21:57:30.864Z,3.40
2023-01-24T22:00:01.620Z,3.40
2023-01-24T22:02:39.479Z,3.40
2023-01-24T22:05:07.763Z,3.60
2023-01-24T22:07:35.504Z,3.50
2023-01-24T22:10:04.188Z,3.60
2023-01-24T22:12:35.253Z,3.50
2023-01-24T22:15:03.179Z,3.60
2023-01-24T22:17:32.660Z,3.40
2023-01-24T22:20:00.331Z,4.70
2023-01-24T22:22:33.921Z,3.40
2023-01-24T22:25:26.643Z,3.40
2023-01-24T22:27:54.524Z,3.40
2023-01-24T22:30:24.197Z,3.40
2023-01-24T22:32:52.765Z,3.40
2023-01-24T22:35:23.756Z,3.40
2023-01-24T22:37:58.190Z,3.40
2023-01-24T22:40:27.142Z,3.40
2023-01-24T22:42:58.535Z,4.00
2023-01-24T22:45:27.764Z,3.40
2023-01-24T22:47:55.537Z,3.40
2023-01-24T22:50:23.931Z,3.40
2023-01-24T22:52:52.131Z,2.80
2023-01-24T22:55:20.411Z,3.30
2023-01-24T22:57:47.907Z,3.70
2023-01-24T23:00:16.243Z,3.30
2023-01-24T23:02:43.718Z,3.40
2023-01-24T23:05:11.809Z,3.40
2023-01-24T23:07:39.743Z,3.40
2023-01-24T23:10:07.571Z,3.30
2023-01-24T23:12:53.481Z,3.40
2023-01-24T23:15:40.387Z,3.40
2023-01-24T23:18:13.070Z,3.30
2023-01-24T23:20:59.220Z,3.30
2023-01-24T23:23:26.618Z,4.90
2023-01-24T23:25:54.251Z,4.60
2023-01-24T23:28:21.839Z,3.30
2023-01-24T23:30:59.519Z,3.40
2023-01-24T23:33:39.682Z,3.30
2023-01-24T23:36:09.263Z,3.30
2023-01-24T23:38:36.775Z,3.30
2023-01-24T23:41:09.013Z,3.20
2023-01-24T23:43:36.572Z,3.30
2023-01-24T23:46:09.866Z,4.00
2023-01-24T23:48:38.391Z,3.30
2023-01-24T23:51:06.558Z,3.20
2023-01-24T23:53:34.032Z,3.30
2023-01-24T23:56:01.777Z,3.60
2023-01-24T23:58:29.655Z,3.20
